createdAt,value
2023-01-28T00:01:52.241Z,99.90
2023-01-28T00:04:25.501Z,99.90
2023-01-28T00:06:58.699Z,99.90
2023-01-28T00:09:33.786Z,99.90
2023-01-28T00:12:07.041Z,99.90
2023-01-28T00:14:40.611Z,99.90
2023-01-28T00:17:14.197Z,99.90
2023-01-28T00:19:47.779Z,99.90
2023-01-28T00:22:20.662Z,99.90
2023-01-28T00:24:55.311Z,99.90
2023-01-28T00:27:28.456Z,99.90
2023-01-28T00:30:03.787Z,99.90
2023-01-28T00:32:36.813Z,99.90
2023-01-28T00:35:10.966Z,99.90
2023-01-28T00:37:49.287Z,99.90
2023-01-28T00:40:25.043Z,99.90
2023-01-28T00:42:58.273Z,99.90
2023-01-28T00:45:31.788Z,99.90
2023-01-28T00:48:04.906Z,99.90
2023-01-28T00:50:38.019Z,99.90
2023-01-28T00:53:11.585Z,99.90
2023-01-28T00:55:47.127Z,99.90
2023-01-28T00:58:21.961Z,99.90
2023-01-28T01:00:56.087Z,99.90
2023-01-28T01:03:29.389Z,99.90
2023-01-28T01:06:03.688Z,99.90
2023-01-28T01:08:41.164Z,99.90
2023-01-28T01:11:16.583Z,99.90
2023-01-28T01:13:53.505Z,99.90
2023-01-28T01:16:28.662Z,99.90
2023-01-28T01:19:02.197Z,99.90
2023-01-28T01:21:35.882Z,99.90
2023-01-28T01:24:09.797Z,99.90
2023-01-28T01:26:45.222Z,99.90
2023-01-28T01:29:18.852Z,99.90
2023-01-28T01:31:51.891Z,99.90
2023-01-28T01:34:25.874Z,99.90
2023-01-28T01:36:58.738Z,99.90
2023-01-28T01:39:32.118Z,99.90
2023-01-28T01:42:07.158Z,99.90
2023-01-28T01:45:01.476Z,99.90
2023-01-28T01:47:43.055Z,99.90
2023-01-28T01:50:24.505Z,99.90
2023-01-28T01:53:00.506Z,99.90
2023-01-28T01:55:38.028Z,99.90
2023-01-28T01:58:17.149Z,99.90
2023-01-28T02:00:50.495Z,99.90
2023-01-28T02:03:29.921Z,99.90
2023-01-28T02:06:03.473Z,99.90
2023-01-28T02:08:36.436Z,99.90
2023-01-28T02:11:10.968Z,99.40
2023-01-28T02:13:50.051Z,99.90
2023-01-28T02:16:23.774Z,98.00
2023-01-28T02:18:56.710Z,98.40
2023-01-28T02:22:03.267Z,97.70
2023-01-28T02:25:00.300Z,95.60
2023-01-28T02:27:40.057Z,95.80
2023-01-28T02:30:19.648Z,94.40
2023-01-28T02:33:01.050Z,94.20
2023-01-28T02:35:39.277Z,94.00
2023-01-28T02:38:15.986Z,94.60
2023-01-28T02:41:07.631Z,93.90
2023-01-28T02:43:42.818Z,93.20
2023-01-28T02:46:42.752Z,93.20
2023-01-28T02:49:19.891Z,92.50
2023-01-28T02:52:10.734Z,92.80
2023-01-28T02:54:48.598Z,92.70
2023-01-28T02:57:34.565Z,93.30
2023-01-28T03:00:14.461Z,93.00
2023-01-28T03:02:55.929Z,92.30
2023-01-28T03:05:34.556Z,91.60
2023-01-28T03:08:29.905Z,92.10
2023-01-28T03:11:20.300Z,92.60
2023-01-28T03:14:10.237Z,92.50
2023-01-28T03:17:01.915Z,92.10
2023-01-28T03:19:53.437Z,92.40
2023-01-28T03:22:44.719Z,92.70
2023-01-28T03:25:40.441Z,92.80
2023-01-28T03:28:36.271Z,92.00
2023-01-28T03:31:30.276Z,92.90
2023-01-28T03:34:22.199Z,92.70
2023-01-28T03:36:58.996Z,92.40
2023-01-28T03:39:49.342Z,91.00
2023-01-28T03:42:22.200Z,91.70
2023-01-28T03:45:09.834Z,91.30
2023-01-28T03:47:43.673Z,91.50
2023-01-28T03:50:17.983Z,92.00
2023-01-28T03:53:16.402Z,91.60
2023-01-28T03:55:59.686Z,91.80
2023-01-28T03:58:50.156Z,91.30
2023-01-28T04:01:26.632Z,91.10
2023-01-28T04:04:02.527Z,91.40
2023-01-28T04:06:38.591Z,91.30
2023-01-28T04:09:25.777Z,91.20
2023-01-28T04:12:25.302Z,90.60
2023-01-28T04:15:02.892Z,90.60
2023-01-28T04:17:39.201Z,91.20
2023-01-28T04:20:15.990Z,91.20
2023-01-28T04:22:52.371Z,92.00
2023-01-28T04:25:32.493Z,92.60
2023-01-28T04:28:09.679Z,92.60
2023-01-28T04:30:44.597Z,93.00
2023-01-28T04:33:38.629Z,93.20
2023-01-28T04:36:49.818Z,93.10
2023-01-28T04:39:43.716Z,93.30
2023-01-28T04:42:33.724Z,93.80
2023-01-28T04:45:30.758Z,94.50
2023-01-28T04:48:32.394Z,94.10
2023-01-28T04:51:29.591Z,93.60
2023-01-28T04:54:27.491Z,93.50
2023-01-28T04:57:11.189Z,93.60
2023-01-28T04:59:53.070Z,93.60
2023-01-28T05:02:44.007Z,93.80
2023-01-28T05:05:36.007Z,94.00
2023-01-28T05:08:47.455Z,93.60
2023-01-28T05:11:39.030Z,93.90
2023-01-28T05:14:30.366Z,93.90
2023-01-28T05:17:22.342Z,93.80
2023-01-28T05:19:59.537Z,93.50
2023-01-28T05:22:39.035Z,93.50
2023-01-28T05:25:49.347Z,93.90
2023-01-28T05:28:41.386Z,94.70
2023-01-28T05:31:24.408Z,94.60
2023-01-28T05:34:07.143Z,94.80
2023-01-28T05:36:48.125Z,95.10
2023-01-28T05:39:46.406Z,94.90
2023-01-28T05:42:23.261Z,95.00
2023-01-28T05:45:12.209Z,95.10
2023-01-28T05:48:15.876Z,95.10
2023-01-28T05:51:28.408Z,94.90
2023-01-28T05:54:10.341Z,94.60
2023-01-28T05:56:53.112Z,94.90
2023-01-28T05:59:31.065Z,95.10
2023-01-28T06:02:29.497Z,95.10
2023-01-28T06:05:11.946Z,94.90
2023-01-28T06:07:52.596Z,95.10
2023-01-28T06:10:34.514Z,95.00
2023-01-28T06:13:11.080Z,95.10
2023-01-28T06:16:07.150Z,95.00
2023-01-28T06:19:06.210Z,95.30
2023-01-28T06:21:46.521Z,94.90
2023-01-28T06:24:32.052Z,94.80
2023-01-28T06:27:13.320Z,95.30
2023-01-28T06:30:05.458Z,94.90
2023-01-28T06:32:57.677Z,94.40
2023-01-28T06:35:44.950Z,94.30
2023-01-28T06:38:32.895Z,94.20
2023-01-28T06:41:18.364Z,94.20
2023-01-28T06:43:54.486Z,94.20
2023-01-28T06:46:30.222Z,94.50
2023-01-28T06:49:10.548Z,94.20
2023-01-28T06:51:46.734Z,94.20
2023-01-28T06:54:27.544Z,94.70
2023-01-28T06:57:13.844Z,94.60
2023-01-28T06:59:50.172Z,93.60
2023-01-28T07:02:32.748Z,93.30
2023-01-28T07:05:11.185Z,92.90
2023-01-28T07:07:48.794Z,92.60
2023-01-28T07:10:45.936Z,92.40
2023-01-28T07:13:38.897Z,92.50
2023-01-28T07:16:18.211Z,92.60
2023-01-28T07:18:59.551Z,92.90
2023-01-28T07:21:40.296Z,92.90
2023-01-28T07:27:11.028Z,92.80
2023-01-28T07:29:57.946Z,92.60
2023-01-28T07:32:37.688Z,92.70
2023-01-28T07:35:18.750Z,92.60
2023-01-28T07:38:16.772Z,92.80
2023-01-28T07:40:57.480Z,92.50
2023-01-28T07:43:33.249Z,92.10
2023-01-28T07:46:19.458Z,92.20
2023-01-28T07:48:56.299Z,92.30
2023-01-28T07:51:35.323Z,92.30
2023-01-28T07:54:13.582Z,92.00
2023-01-28T07:56:48.129Z,92.60
2023-01-28T07:59:25.252Z,92.70
2023-01-28T08:02:22.756Z,92.50
2023-01-28T08:05:16.112Z,92.50
2023-01-28T08:08:04.436Z,92.90
2023-01-28T08:10:40.085Z,93.20
2023-01-28T08:13:30.733Z,93.30
2023-01-28T08:16:16.148Z,93.10
2023-01-28T08:18:57.392Z,93.00
2023-01-28T08:21:47.476Z,92.70
2023-01-28T08:24:33.251Z,92.60
2023-01-28T08:27:20.560Z,92.60
2023-01-28T08:29:57.026Z,92.80
2023-01-28T08:32:43.308Z,92.50
2023-01-28T08:35:33.216Z,92.40
2023-01-28T08:38:14.386Z,92.60
2023-01-28T08:41:07.045Z,92.40
2023-01-28T08:43:43.604Z,92.40
2023-01-28T08:46:19.275Z,92.40
2023-01-28T08:49:06.350Z,91.70
2023-01-28T08:51:50.616Z,92.10
2023-01-28T08:54:34.637Z,91.90
2023-01-28T08:57:11.154Z,91.10
2023-01-28T08:59:56.827Z,91.00
2023-01-28T09:02:35.593Z,91.10
2023-01-28T09:05:10.297Z,91.20
2023-01-28T09:08:07.485Z,91.70
2023-01-28T09:10:48.293Z,92.10
2023-01-28T09:13:30.385Z,92.10
2023-01-28T09:16:20.699Z,92.70
2023-01-28T09:19:03.479Z,92.70
2023-01-28T09:21:39.153Z,92.70
2023-01-28T09:24:30.315Z,92.90
2023-01-28T09:27:11.789Z,93.10
2023-01-28T09:29:51.771Z,93.40
2023-01-28T09:32:32.417Z,93.60
2023-01-28T09:35:11.208Z,93.60
2023-01-28T09:37:55.028Z,92.60
2023-01-28T09:41:02.516Z,92.90
2023-01-28T09:44:19.230Z,92.80
2023-01-28T09:47:06.749Z,93.00
2023-01-28T09:49:53.983Z,93.30
2023-01-28T09:52:34.305Z,93.30
2023-01-28T09:55:20.205Z,93.50
2023-01-28T09:58:04.404Z,93.60
2023-01-28T10:00:46.180Z,93.40
2023-01-28T10:03:42.831Z,93.40
2023-01-28T10:06:40.229Z,93.30
2023-01-28T10:09:50.244Z,93.50
2023-01-28T10:12:49.803Z,93.70
2023-01-28T10:15:57.147Z,93.80
2023-01-28T10:18:46.569Z,93.60
2023-01-28T10:21:29.914Z,93.80
2023-01-28T10:24:08.100Z,93.90
2023-01-28T10:26:57.659Z,94.00
2023-01-28T10:29:41.250Z,94.10
2023-01-28T10:32:28.086Z,94.10
2023-01-28T10:35:08.689Z,94.30
2023-01-28T10:37:44.577Z,94.50
2023-01-28T10:40:21.564Z,94.30
2023-01-28T10:43:08.397Z,94.60
2023-01-28T10:45:52.777Z,94.90
2023-01-28T10:48:52.875Z,95.00
2023-01-28T10:51:40.833Z,94.80
2023-01-28T10:54:25.659Z,94.90
2023-01-28T10:57:03.076Z,95.00
2023-01-28T10:59:53.452Z,95.40
2023-01-28T11:02:44.788Z,95.00
2023-01-28T11:05:45.874Z,94.90
2023-01-28T11:08:41.419Z,94.60
2023-01-28T11:11:26.452Z,94.70
2023-01-28T11:14:05.340Z,94.70
2023-01-28T11:16:46.287Z,94.90
2023-01-28T11:19:30.149Z,95.30
2023-01-28T11:22:26.962Z,95.20
2023-01-28T11:25:25.473Z,95.20
2023-01-28T11:28:08.836Z,95.20
2023-01-28T11:31:24.808Z,95.50
2023-01-28T11:34:07.240Z,95.60
2023-01-28T11:36:48.138Z,95.50
2023-01-28T11:39:31.108Z,95.80
2023-01-28T11:42:22.739Z,95.80
2023-01-28T11:45:10.635Z,96.10
2023-01-28T11:48:07.054Z,96.20
2023-01-28T11:51:01.999Z,96.10
2023-01-28T11:53:59.670Z,96.60
2023-01-28T11:57:03.733Z,96.50
2023-01-28T12:00:16.964Z,96.80
2023-01-28T12:03:09.535Z,96.40
2023-01-28T12:05:59.496Z,95.90
2023-01-28T12:08:54.912Z,95.80
2023-01-28T12:11:55.274Z,95.80
2023-01-28T12:14:50.400Z,95.80
2023-01-28T12:17:39.645Z,96.00
2023-01-28T12:20:36.240Z,96.50
2023-01-28T12:23:42.921Z,96.70
2023-01-28T12:26:28.466Z,97.50
2023-01-28T12:29:20.958Z,98.00
2023-01-28T12:32:30.513Z,98.20
2023-01-28T12:35:41.219Z,98.20
2023-01-28T12:38:26.102Z,98.30
2023-01-28T12:41:14.278Z,98.60
2023-01-28T12:44:05.648Z,98.50
2023-01-28T12:46:50.092Z,99.60
2023-01-28T12:49:36.250Z,99.90
2023-01-28T12:52:30.468Z,99.90
2023-01-28T12:55:12.916Z,99.90
2023-01-28T12:57:53.752Z,99.90
2023-01-28T13:00:41.840Z,99.90
2023-01-28T13:03:24.912Z,99.90
2023-01-28T13:06:08.492Z,99.90
2023-01-28T13:08:49.857Z,99.90
2023-01-28T13:11:40.440Z,99.90
2023-01-28T13:14:20.969Z,99.90
2023-01-28T13:17:02.732Z,99.90
2023-01-28T13:19:45.501Z,99.90
2023-01-28T13:22:37.452Z,99.90
2023-01-28T13:25:35.739Z,99.90
2023-01-28T13:28:42.105Z,99.90
2023-01-28T13:31:28.833Z,99.90
2023-01-28T13:34:13.652Z,99.90
2023-01-28T13:36:56.941Z,99.90
2023-01-28T13:39:34.839Z,99.90
2023-01-28T13:42:29.386Z,99.90
2023-01-28T13:45:33.079Z,99.90
2023-01-28T13:48:31.822Z,99.90
2023-01-28T13:51:18.383Z,99.90
2023-01-28T13:54:13.221Z,99.90
2023-01-28T13:57:09.184Z,99.90
2023-01-28T14:00:12.697Z,99.90
2023-01-28T14:03:37.748Z,99.90
2023-01-28T14:06:56.214Z,99.90
2023-01-28T14:10:01.674Z,99.90
2023-01-28T14:13:10.857Z,99.90
2023-01-28T14:16:15.130Z,99.90
2023-01-28T14:18:56.462Z,99.90
2023-01-28T14:21:37.383Z,99.90
2023-01-28T14:24:24.773Z,99.90
2023-01-28T14:27:09.832Z,99.90
2023-01-28T14:30:02.522Z,99.90
2023-01-28T14:32:59.628Z,99.90
2023-01-28T14:35:37.827Z,99.90
2023-01-28T14:38:22.960Z,99.90
2023-01-28T14:41:03.321Z,99.90
2023-01-28T14:43:54.596Z,99.90
2023-01-28T14:46:46.050Z,99.90
2023-01-28T14:49:36.958Z,99.90
2023-01-28T14:52:25.280Z,99.90
2023-01-28T14:55:19.219Z,99.90
2023-01-28T14:58:02.996Z,99.90
2023-01-28T15:00:51.058Z,99.90
2023-01-28T15:03:33.725Z,99.90
2023-01-28T15:06:25.899Z,99.90
2023-01-28T15:09:15.873Z,99.90
2023-01-28T15:12:07.322Z,99.90
2023-01-28T15:14:57.157Z,99.90
2023-01-28T15:17:36.044Z,99.90
2023-01-28T15:20:26.922Z,99.90
2023-01-28T15:23:14.584Z,99.90
2023-01-28T15:25:56.826Z,99.90
2023-01-28T15:28:38.334Z,99.90
2023-01-28T15:31:25.848Z,99.90
2023-01-28T15:34:08.867Z,99.90
2023-01-28T15:36:47.007Z,99.90
2023-01-28T15:39:42.861Z,99.90
2023-01-28T15:42:30.829Z,99.90
2023-01-28T15:45:07.302Z,99.90
2023-01-28T15:47:44.970Z,99.90
2023-01-28T15:50:31.222Z,99.90
2023-01-28T15:53:24.915Z,99.90
2023-01-28T15:56:22.075Z,99.90
2023-01-28T15:59:01.203Z,99.90
2023-01-28T16:01:37.824Z,99.90
2023-01-28T16:04:27.204Z,99.90
2023-01-28T16:07:16.773Z,99.90
2023-01-28T16:09:59.467Z,99.90
2023-01-28T16:12:58.033Z,99.90
2023-01-28T16:15:44.051Z,99.90
2023-01-28T16:18:34.770Z,99.90
2023-01-28T16:21:28.109Z,99.90
2023-01-28T16:24:08.626Z,99.90
2023-01-28T16:26:48.079Z,99.90
2023-01-28T16:29:33.073Z,99.90
2023-01-28T16:32:31.481Z,99.90
2023-01-28T16:35:20.347Z,99.90
2023-01-28T16:38:03.041Z,99.90
2023-01-28T16:40:41.188Z,99.90
2023-01-28T16:43:20.904Z,99.90
2023-01-28T16:46:01.355Z,99.90
2023-01-28T16:48:39.438Z,99.90
2023-01-28T16:51:23.105Z,99.90
2023-01-28T16:54:03.955Z,99.90
2023-01-28T16:56:45.555Z,99.90
2023-01-28T16:59:23.666Z,99.90
2023-01-28T17:02:12.937Z,99.90
2023-01-28T17:04:52.160Z,99.90
2023-01-28T17:07:30.957Z,99.90
2023-01-28T17:10:13.886Z,99.90
2023-01-28T17:12:53.940Z,99.90
2023-01-28T17:15:32.816Z,99.90
2023-01-28T17:18:11.534Z,99.90
2023-01-28T17:20:47.625Z,99.90
2023-01-28T17:23:25.702Z,99.90
2023-01-28T17:26:01.588Z,99.90
2023-01-28T17:28:37.669Z,99.90
2023-01-28T17:31:16.171Z,99.90
2023-01-28T17:33:57.928Z,99.90
2023-01-28T17:36:34.661Z,99.90
2023-01-28T17:39:16.851Z,99.90
2023-01-28T17:41:53.502Z,99.90
2023-01-28T17:44:29.552Z,99.90
2023-01-28T17:47:05.325Z,99.90
2023-01-28T17:49:43.483Z,99.90
2023-01-28T17:52:19.706Z,99.90
2023-01-28T17:54:57.119Z,99.90
2023-01-28T17:57:33.459Z,99.90
2023-01-28T18:00:12.298Z,99.90
2023-01-28T18:02:48.956Z,99.90
2023-01-28T18:05:32.169Z,99.90
2023-01-28T18:08:09.407Z,99.90
2023-01-28T18:10:51.698Z,99.90
2023-01-28T18:13:28.126Z,99.90
2023-01-28T18:16:06.772Z,99.90
2023-01-28T18:18:44.907Z,99.90
2023-01-28T18:21:52.204Z,99.90
2023-01-28T18:24:30.447Z,99.90
2023-01-28T18:27:06.600Z,99.90
2023-01-28T18:29:45.867Z,99.90
2023-01-28T18:32:24.331Z,99.90
2023-01-28T18:35:00.179Z,99.90
2023-01-28T18:37:38.350Z,99.90
2023-01-28T18:40:16.272Z,99.90
2023-01-28T18:42:55.808Z,99.90
2023-01-28T18:45:31.928Z,99.90
2023-01-28T18:48:07.576Z,99.90
2023-01-28T18:50:43.456Z,99.90
2023-01-28T18:53:20.946Z,99.90
2023-01-28T18:55:59.072Z,99.90
2023-01-28T18:58:35.047Z,99.90
2023-01-28T19:01:15.055Z,99.90
2023-01-28T19:03:51.514Z,99.90
2023-01-28T19:06:29.294Z,99.90
2023-01-28T19:09:08.688Z,99.90
2023-01-28T19:11:44.490Z,99.90
2023-01-28T19:14:20.526Z,99.90
2023-01-28T19:16:56.371Z,99.90
2023-01-28T19:19:34.336Z,99.90
2023-01-28T19:22:10.292Z,99.90
2023-01-28T19:24:48.274Z,99.90
2023-01-28T19:27:24.283Z,99.90
2023-01-28T19:29:59.630Z,99.90
2023-01-28T19:32:35.190Z,99.90
2023-01-28T19:35:11.878Z,99.90
2023-01-28T19:37:47.494Z,99.90
2023-01-28T19:40:25.362Z,99.90
2023-01-28T19:43:00.308Z,99.90
2023-01-28T19:45:35.617Z,99.90
2023-01-28T19:48:11.057Z,99.90
2023-01-28T19:50:46.466Z,99.90
2023-01-28T19:53:22.103Z,99.90
2023-01-28T19:55:59.706Z,99.90
2023-01-28T19:58:37.432Z,99.90
2023-01-28T20:01:13.737Z,99.90
2023-01-28T20:03:49.119Z,99.90
2023-01-28T20:06:24.336Z,99.90
2023-01-28T20:09:00.166Z,99.90
2023-01-28T20:11:36.676Z,99.90
2023-01-28T20:14:11.350Z,99.90
2023-01-28T20:16:46.038Z,99.90
2023-01-28T20:19:21.402Z,99.90
2023-01-28T20:21:57.700Z,99.90
2023-01-28T20:24:31.961Z,99.90
2023-01-28T20:27:08.507Z,99.90
2023-01-28T20:29:43.488Z,99.90
2023-01-28T20:32:20.443Z,99.90
2023-01-28T20:34:55.456Z,99.90
2023-01-28T20:37:31.252Z,99.90
2023-01-28T20:40:05.631Z,99.90
2023-01-28T20:42:41.185Z,99.90
2023-01-28T20:45:16.101Z,99.90
2023-01-28T20:47:51.311Z,99.90
2023-01-28T20:50:24.730Z,99.90
2023-01-28T20:52:59.683Z,99.90
2023-01-28T20:55:34.112Z,99.90
2023-01-28T20:58:10.571Z,99.90
2023-01-28T21:00:48.399Z,99.90
2023-01-28T21:03:21.724Z,99.90
2023-01-28T21:05:55.652Z,99.90
2023-01-28T21:08:30.075Z,99.90
2023-01-28T21:11:08.222Z,99.90
2023-01-28T21:13:45.268Z,99.90
2023-01-28T21:16:19.582Z,99.90
2023-01-28T21:18:54.281Z,99.90
2023-01-28T21:21:30.088Z,99.90
2023-01-28T21:24:05.684Z,99.90
2023-01-28T21:26:40.073Z,99.90
2023-01-28T21:29:16.061Z,99.90
2023-01-28T21:31:49.420Z,99.90
2023-01-28T21:34:26.330Z,99.90
2023-01-28T21:37:00.408Z,99.90
2023-01-28T21:39:34.570Z,99.90
2023-01-28T21:42:08.809Z,99.90
2023-01-28T21:44:45.322Z,99.90
2023-01-28T21:47:20.235Z,99.90
2023-01-28T21:49:54.340Z,99.90
2023-01-28T21:52:28.674Z,99.90
2023-01-28T21:55:02.952Z,99.90
2023-01-28T21:57:36.952Z,99.90
2023-01-28T22:00:13.187Z,99.90
2023-01-28T22:02:47.570Z,99.90
2023-01-28T22:05:23.476Z,99.90
2023-01-28T22:07:57.311Z,99.90
2023-01-28T22:10:31.341Z,99.90
2023-01-28T22:13:06.120Z,99.90
2023-01-28T22:15:42.259Z,99.90
2023-01-28T22:18:16.611Z,99.90
2023-01-28T22:20:50.378Z,99.90
2023-01-28T22:23:24.839Z,99.90
2023-01-28T22:26:00.481Z,99.90
2023-01-28T22:28:34.863Z,99.90
2023-01-28T22:31:16.237Z,99.90
2023-01-28T22:33:51.732Z,99.90
2023-01-28T22:36:26.264Z,99.90
2023-01-28T22:38:59.874Z,99.90
2023-01-28T22:41:33.577Z,99.90
2023-01-28T22:44:08.547Z,99.90
2023-01-28T22:46:45.274Z,99.90
2023-01-28T22:49:19.121Z,99.90
2023-01-28T22:51:53.739Z,99.90
2023-01-28T22:54:27.098Z,99.90
2023-01-28T22:57:02.841Z,99.90
2023-01-28T22:59:40.386Z,99.90
2023-01-28T23:02:19.689Z,99.90
2023-01-28T23:04:54.255Z,99.90
2023-01-28T23:07:29.739Z,99.90
2023-01-28T23:10:05.210Z,99.90
2023-01-28T23:12:41.209Z,99.90
2023-01-28T23:15:32.342Z,99.90
2023-01-28T23:18:26.175Z,99.90
2023-01-28T23:21:19.037Z,99.90
2023-01-28T23:24:10.206Z,99.90
2023-01-28T23:26:45.147Z,99.90
2023-01-28T23:29:20.467Z,99.90
2023-01-28T23:31:56.974Z,99.90
2023-01-28T23:34:37.926Z,99.90
2023-01-28T23:37:15.564Z,99.90
2023-01-28T23:39:51.678Z,99.90
2023-01-28T23:42:27.850Z,99.90
2023-01-28T23:45:03.297Z,99.90
2023-01-28T23:47:38.556Z,99.90
2023-01-28T23:50:18.125Z,99.90
2023-01-28T23:52:53.683Z,99.90
2023-01-28T23:55:29.485Z,99.90
2023-01-28T23:58:05.959Z,99.90
